Time;durP1;ratioP1;P1;durP2;ratioP2;P2;SDS_P1;SDS_P2;PMS_P1;PMS_P2;Temp;Humidity;BMP_temperature;BMP_pressure;BME280_temperature;BME280_humidity;BME280_pressure;Samples;Min_cycle;Max_cycle;Signal;HPM_P1;HPM_P2
2022/10/16 00:00:57;;;;;;;3.33;3.03;;;;;;;20.43;43.22;95675.41;6112338;28;102783;-68
2022/10/16 00:04:02;;;;;;;3.10;2.90;;;;;;;20.42;43.45;95684.47;6112733;28;103080;-68
2022/10/16 00:07:05;;;;;;;2.80;2.60;;;;;;;20.42;43.24;95684.47;6111156;28;103576;-68
2022/10/16 00:10:09;;;;;;;2.97;2.77;;;;;;;20.41;43.13;95680.22;6102492;28;103248;-68
2022/10/16 00:13:12;;;;;;;3.90;3.60;;;;;;;20.41;43.31;95691.66;6112128;28;103048;-68
2022/10/16 00:16:16;;;;;;;3.20;3.00;;;;;;;20.42;43.09;95692.44;6112379;28;103251;-68
2022/10/16 00:19:19;;;;;;;3.40;3.10;;;;;;;20.39;43.16;95685.03;6106467;28;103329;-68
2022/10/16 00:22:23;;;;;;;3.33;3.03;;;;;;;20.40;42.98;95695.38;6106583;28;103160;-68
2022/10/16 00:25:26;;;;;;;2.93;2.73;;;;;;;20.40;43.20;95694.59;6111154;28;103223;-70
2022/10/16 00:28:30;;;;;;;3.37;3.17;;;;;;;20.39;43.24;95695.66;6111963;28;104846;-68
2022/10/16 00:31:35;;;;;;;3.00;2.80;;;;;;;20.38;43.33;95697.53;6101732;28;104015;-68
2022/10/16 00:34:38;;;;;;;2.93;2.60;;;;;;;20.40;43.12;95697.25;6111815;28;103161;-69
2022/10/16 00:37:41;;;;;;;2.80;2.60;;;;;;;20.39;43.18;95717.72;6111542;28;103105;-68
2022/10/16 00:40:44;;;;;;;3.30;3.10;;;;;;;20.39;43.39;95714.28;6112545;28;104889;-68
2022/10/16 00:43:49;;;;;;;2.93;2.73;;;;;;;20.39;43.16;95716.94;6101856;28;103575;-68
2022/10/16 00:46:53;;;;;;;3.10;2.90;;;;;;;20.38;43.22;95710.03;6116042;28;103187;-68
2022/10/16 00:50:01;;;;;;;2.80;2.60;;;;;;;20.39;43.28;95714.28;6116087;28;102761;-68
2022/10/16 00:53:04;;;;;;;3.07;2.87;;;;;;;20.39;43.19;95711.63;6110705;28;107341;-68
2022/10/16 00:56:08;;;;;;;2.93;2.73;;;;;;;20.36;43.18;95710.31;6109304;28;103076;-68
2022/10/16 00:59:17;;;;;;;3.33;3.13;;;;;;;20.37;43.26;95713.75;6114952;28;103831;-68
2022/10/16 01:02:21;;;;;;;2.80;2.60;;;;;;;20.36;43.16;95720.16;6115949;28;102890;-68
2022/10/16 01:05:31;;;;;;;3.03;2.83;;;;;;;20.37;43.09;95716.41;6104391;28;103883;-68
2022/10/16 01:08:43;;;;;;;3.10;2.90;;;;;;;20.35;43.15;95724.66;6115584;28;103325;-68
2022/10/16 01:11:59;;;;;;;2.80;2.60;;;;;;;20.36;42.92;95728.13;6115796;28;103228;-68
2022/10/16 01:15:09;;;;;;;3.10;2.80;;;;;;;20.34;43.12;95725.75;6114687;28;103413;-68
2022/10/16 01:18:18;;;;;;;3.30;3.10;;;;;;;20.34;43.33;95728.41;6104355;28;103086;-68
2022/10/16 01:21:25;;;;;;;3.03;2.83;;;;;;;20.35;43.09;95721.22;6115360;28;102824;-68
2022/10/16 01:24:33;;;;;;;2.87;2.60;;;;;;;20.33;42.99;95718.81;6115140;28;103743;-68
2022/10/16 01:27:41;;;;;;;3.13;2.93;;;;;;;20.33;43.16;95718.81;6108240;28;103313;-68
2022/10/16 01:30:46;;;;;;;3.13;2.90;;;;;;;20.34;43.29;95709.00;6114776;28;103108;-68
2022/10/16 01:33:54;;;;;;;2.80;2.60;;;;;;;20.31;43.07;95711.13;6115630;28;106247;-68
2022/10/16 01:37:03;;;;;;;2.67;2.47;;;;;;;20.31;42.98;95705.81;6114971;28;103958;-68
2022/10/16 01:40:10;;;;;;;2.90;2.70;;;;;;;20.32;43.08;95706.59;6104309;28;102966;-68
2022/10/16 01:43:18;;;;;;;2.70;2.50;;;;;;;20.28;43.03;95706.38;6114869;28;103283;-68
2022/10/16 01:46:23;;;;;;;3.13;2.93;;;;;;;20.30;43.04;95708.75;6114932;28;103209;-68
2022/10/16 01:49:32;;;;;;;2.70;2.50;;;;;;;20.29;43.05;95712.47;6114283;28;103159;-68
2022/10/16 01:52:38;;;;;;;3.20;3.00;;;;;;;20.30;43.11;95724.69;6104761;28;103938;-68
2022/10/16 01:55:45;;;;;;;2.57;2.37;;;;;;;20.28;43.04;95724.19;6114416;28;103120;-68
2022/10/16 01:58:55;;;;;;;2.80;2.60;;;;;;;20.26;42.99;95721.78;6113653;28;102904;-68
2022/10/16 02:02:02;;;;;;;4.43;2.80;;;;;;;20.26;43.00;95721.78;6103727;28;103585;-68
2022/10/16 02:05:13;;;;;;;2.93;2.67;;;;;;;20.27;42.96;95719.94;6113790;28;103723;-68
2022/10/16 02:08:16;;;;;;;3.13;2.93;;;;;;;20.27;43.00;95730.56;6114281;28;103180;-68
2022/10/16 02:11:19;;;;;;;2.80;2.60;;;;;;;20.28;42.87;95722.31;6114587;28;103254;-68
2022/10/16 02:14:25;;;;;;;3.33;3.13;;;;;;;20.26;43.03;95724.47;6102951;28;103134;-68
2022/10/16 02:17:28;;;;;;;3.00;2.70;;;;;;;20.26;42.86;95734.28;6113985;28;103192;-68
2022/10/16 02:20:35;;;;;;;2.53;2.33;;;;;;;20.24;42.81;95742.53;6114240;28;103377;-68
2022/10/16 02:23:49;;;;;;;2.90;2.70;;;;;;;20.23;42.94;95737.47;6109326;28;103247;-68
2022/10/16 02:26:58;;;;;;;2.87;2.67;;;;;;;20.25;42.85;95740.69;6109239;28;103202;-68
2022/10/16 02:30:08;;;;;;;3.07;2.87;;;;;;;20.24;43.07;95742.53;6113827;28;102852;-68
2022/10/16 02:33:14;;;;;;;2.87;2.67;;;;;;;20.22;42.87;95749.97;6114300;28;102966;-68
2022/10/16 02:36:17;;;;;;;3.33;3.13;;;;;;;20.23;42.90;95748.09;6102330;28;103142;-68
2022/10/16 02:39:21;;;;;;;3.50;3.20;;;;;;;20.22;42.80;95749.97;6113170;28;103226;-69
2022/10/16 02:42:30;;;;;;;2.83;2.63;;;;;;;20.23;43.03;95746.25;6113478;28;103154;-69
2022/10/16 02:45:34;;;;;;;3.20;2.90;;;;;;;20.20;42.83;95741.50;6114386;28;103031;-68
2022/10/16 02:48:39;;;;;;;2.93;2.50;;;;;;;20.22;42.82;95746.53;6102212;28;103284;-68
2022/10/16 02:51:42;;;;;;;3.10;2.90;;;;;;;20.19;42.97;95750.53;6113558;28;103398;-68
2022/10/16 02:54:45;;;;;;;3.30;3.10;;;;;;;20.21;42.89;95755.56;6112944;28;103335;-68
2022/10/16 02:57:48;;;;;;;3.03;2.83;;;;;;;20.18;43.34;95767.53;6107799;28;103032;-68
2022/10/16 03:00:53;;;;;;;2.53;2.33;;;;;;;20.18;42.83;95764.88;6107664;28;104001;-68
2022/10/16 03:03:56;;;;;;;2.70;2.50;;;;;;;20.20;42.77;95764.59;6113298;28;103137;-68
2022/10/16 03:06:59;;;;;;;3.00;2.80;;;;;;;20.20;42.94;95767.25;6112515;28;103022;-69
2022/10/16 03:10:03;;;;;;;2.73;2.53;;;;;;;20.19;42.73;95765.69;6103721;28;103957;-68
2022/10/16 03:13:06;;;;;;;2.87;2.70;;;;;;;20.18;42.91;95764.88;6113588;28;105906;-68
2022/10/16 03:16:10;;;;;;;2.57;2.47;;;;;;;20.19;42.90;95760.38;6113591;28;102989;-68
2022/10/16 03:19:13;;;;;;;3.00;2.80;;;;;;;20.19;42.69;95766.47;6112374;28;103269;-68
2022/10/16 03:22:17;;;;;;;2.90;2.70;;;;;;;20.17;42.99;95773.13;6102351;28;103478;-68
2022/10/16 03:25:20;;;;;;;2.90;2.70;;;;;;;20.15;42.72;95777.91;6112813;28;103203;-68
2022/10/16 03:28:23;;;;;;;3.53;3.23;;;;;;;20.17;42.84;95778.44;6112562;28;104416;-68
2022/10/16 03:31:27;;;;;;;3.27;3.07;;;;;;;20.17;42.97;95789.88;6111712;28;103047;-68
2022/10/16 03:34:30;;;;;;;3.57;3.37;;;;;;;20.15;42.81;95781.34;6103136;28;103092;-68
2022/10/16 03:37:33;;;;;;;3.00;2.80;;;;;;;20.14;43.19;95777.09;6112783;28;103139;-68
2022/10/16 03:40:36;;;;;;;3.40;3.20;;;;;;;20.15;42.79;95780.56;6112791;28;103299;-68
2022/10/16 03:43:39;;;;;;;3.20;3.00;;;;;;;20.15;42.64;95777.91;6102867;28;103266;-69
2022/10/16 03:46:44;;;;;;;3.20;3.00;;;;;;;20.13;42.71;95778.19;6112745;28;102682;-69
2022/10/16 03:49:47;;;;;;;4.13;3.73;;;;;;;20.15;42.61;95776.03;6111889;28;103334;-69
2022/10/16 03:52:50;;;;;;;2.90;2.70;;;;;;;20.14;42.66;95771.78;6112567;28;103096;-68
2022/10/16 03:55:53;;;;;;;3.30;3.10;;;;;;;20.14;42.76;95766.47;6101970;28;103379;-68
2022/10/16 03:58:56;;;;;;;3.40;3.20;;;;;;;20.14;42.63;95773.66;6112884;28;103283;-68
2022/10/16 04:02:00;;;;;;;3.97;3.30;;;;;;;20.12;42.61;95771.28;6111516;28;103187;-67
2022/10/16 04:05:04;;;;;;;3.10;2.90;;;;;;;20.14;42.50;95774.44;6110968;28;103105;-69
2022/10/16 04:08:07;;;;;;;3.30;3.10;;;;;;;20.13;42.75;95766.75;6102226;28;103001;-68
2022/10/16 04:11:10;;;;;;;3.40;3.20;;;;;;;20.09;42.68;95771.84;6111770;28;103093;-68
2022/10/16 04:14:14;;;;;;;3.13;2.93;;;;;;;20.10;42.73;95768.09;6112340;28;103061;-69
2022/10/16 04:17:18;;;;;;;3.00;2.80;;;;;;;20.12;42.64;95773.94;6107096;28;104510;-68
2022/10/16 04:20:21;;;;;;;2.90;2.70;;;;;;;20.10;42.39;95768.09;6109892;28;103297;-68
2022/10/16 04:23:25;;;;;;;3.10;2.90;;;;;;;20.10;42.62;95772.63;6116018;28;103117;-68
2022/10/16 04:26:28;;;;;;;3.40;3.10;;;;;;;20.11;42.92;95774.22;6116472;28;102862;-68
2022/10/16 04:29:31;;;;;;;3.07;2.87;;;;;;;20.07;42.77;95779.28;6106439;28;105716;-68
2022/10/16 04:32:35;;;;;;;2.70;2.50;;;;;;;20.06;42.83;95780.34;6115138;28;103437;-69
2022/10/16 04:35:38;;;;;;;2.83;2.63;;;;;;;20.08;42.73;95777.44;6115899;28;103220;-68
2022/10/16 04:38:41;;;;;;;3.00;2.80;;;;;;;20.09;42.58;95782.47;6116512;28;103164;-68
2022/10/16 04:41:44;;;;;;;3.37;3.10;;;;;;;20.09;42.45;95790.44;6105011;28;103210;-68
2022/10/16 04:44:47;;;;;;;3.40;3.20;;;;;;;20.08;42.57;95799.47;6116227;28;102959;-67
2022/10/16 04:47:52;;;;;;;2.90;2.70;;;;;;;20.07;42.75;95797.09;6115365;28;103180;-69
2022/10/16 04:50:55;;;;;;;4.03;3.73;;;;;;;20.07;42.78;95799.75;6115457;28;103153;-68
2022/10/16 04:53:58;;;;;;;3.30;3.10;;;;;;;20.09;42.64;95802.94;6104798;28;103070;-66
2022/10/16 04:57:01;;;;;;;2.83;2.63;;;;;;;20.08;42.46;95802.13;6115285;28;103110;-67
2022/10/16 05:00:05;;;;;;;3.40;3.10;;;;;;;20.05;42.61;95809.84;6116189;28;103609;-67
2022/10/16 05:03:09;;;;;;;3.63;3.43;;;;;;;20.03;42.77;95810.13;6105483;28;103266;-67
2022/10/16 05:06:12;;;;;;;4.33;4.03;;;;;;;20.05;42.69;95818.63;6114609;28;103100;-67
2022/10/16 05:09:15;;;;;;;3.83;3.53;;;;;;;20.05;42.81;95825.81;6115436;28;102917;-66
2022/10/16 05:12:18;;;;;;;4.00;3.70;;;;;;;20.07;42.51;95821.00;6115499;28;103079;-67
2022/10/16 05:15:24;;;;;;;4.37;4.07;;;;;;;20.01;42.53;95818.38;6104813;28;103105;-67
2022/10/16 05:18:29;;;;;;;3.40;3.10;;;;;;;20.07;42.60;95829.78;6115072;28;103581;-67
2022/10/16 05:21:32;;;;;;;3.37;3.17;;;;;;;20.04;42.66;95843.59;6114939;28;103236;-66
2022/10/16 05:24:35;;;;;;;3.63;3.33;;;;;;;20.07;42.68;95835.09;6115477;28;104385;-67
2022/10/16 05:27:38;;;;;;;3.63;3.33;;;;;;;20.04;42.63;95838.28;6105108;28;104035;-66
2022/10/16 05:30:41;;;;;;;3.50;3.30;;;;;;;20.05;42.65;95839.88;6114393;28;103196;-67
2022/10/16 05:33:45;;;;;;;3.77;3.47;;;;;;;20.06;42.55;95838.81;6113878;28;103030;-67
2022/10/16 05:36:48;;;;;;;3.83;3.63;;;;;;;20.05;42.42;95834.56;6110299;28;103123;-67
2022/10/16 05:39:51;;;;;;;4.30;4.00;;;;;;;20.05;42.16;95839.09;6109669;28;103610;-67
2022/10/16 05:42:56;;;;;;;4.20;3.90;;;;;;;20.06;42.55;95840.66;6115047;28;103050;-67
2022/10/16 05:46:01;;;;;;;3.90;3.60;;;;;;;20.08;42.39;95847.28;6114893;28;103075;-66
2022/10/16 05:49:05;;;;;;;4.57;4.27;;;;;;;20.05;42.47;95845.19;6103511;28;103171;-66
2022/10/16 05:52:08;;;;;;;4.77;4.40;;;;;;;20.06;42.19;95841.47;6114385;28;103219;-68
2022/10/16 05:55:11;;;;;;;3.70;3.50;;;;;;;20.10;42.17;95847.81;6114119;28;103616;-68
2022/10/16 05:58:15;;;;;;;3.60;3.30;;;;;;;20.11;42.20;95848.59;6114410;28;103498;-66
2022/10/16 06:01:20;;;;;;;3.97;3.63;;;;;;;20.20;42.03;95869.03;6103312;28;103233;-68
2022/10/16 06:04:25;;;;;;;3.60;3.40;;;;;;;20.26;42.03;95870.63;6114205;28;103565;-66
2022/10/16 06:07:28;;;;;;;3.77;3.47;;;;;;;20.36;42.04;95871.66;6116729;28;103652;-66
2022/10/16 06:10:32;;;;;;;3.83;3.63;;;;;;;20.44;41.86;95869.19;6114523;28;103480;-67
2022/10/16 06:13:35;;;;;;;4.23;3.90;;;;;;;20.51;41.67;95875.03;6110069;28;103812;-66
2022/10/16 06:16:39;;;;;;;3.90;3.60;;;;;;;20.60;41.49;95885.88;6115457;28;103096;-65
2022/10/16 06:19:43;;;;;;;3.53;3.30;;;;;;;20.71;41.42;95881.28;6115818;28;102825;-67
2022/10/16 06:22:46;;;;;;;4.20;3.90;;;;;;;20.84;41.22;95884.13;6104240;28;103052;-68
2022/10/16 06:25:49;;;;;;;4.57;4.27;;;;;;;20.97;41.04;95892.53;6114237;28;105894;-67
2022/10/16 06:28:53;;;;;;;4.03;3.73;;;;;;;21.04;41.14;95893.03;6114483;28;102935;-67
2022/10/16 06:31:56;;;;;;;4.00;3.70;;;;;;;21.16;40.68;95896.13;6113478;28;103049;-67
2022/10/16 06:35:00;;;;;;;4.00;3.73;;;;;;;21.21;41.00;95898.78;6101708;28;103114;-67
2022/10/16 06:38:03;;;;;;;4.10;3.80;;;;;;;21.32;40.91;95900.28;6113036;28;103266;-67
2022/10/16 06:41:08;;;;;;;3.83;3.53;;;;;;;21.38;40.96;95907.16;6113091;28;103033;-67
2022/10/16 06:44:11;;;;;;;4.17;3.87;;;;;;;21.44;40.28;95907.91;6113446;28;103107;-67
2022/10/16 06:47:14;;;;;;;4.70;4.37;;;;;;;21.49;40.75;95913.16;6102662;28;103123;-67
2022/10/16 06:50:18;;;;;;;4.13;3.83;;;;;;;21.54;40.96;95910.47;6113242;28;103216;-67
2022/10/16 06:53:21;;;;;;;4.50;4.20;;;;;;;21.61;40.55;95923.47;6112894;28;103154;-67
2022/10/16 06:56:26;;;;;;;3.70;3.40;;;;;;;21.67;40.74;95925.00;6107470;28;103204;-67
2022/10/16 06:59:29;;;;;;;4.00;3.70;;;;;;;21.69;40.76;95921.00;6111042;28;103166;-66
2022/10/16 07:02:32;;;;;;;3.87;3.57;;;;;;;21.76;40.66;95925.97;6112593;28;103266;-67
2022/10/16 07:05:39;;;;;;;4.30;4.00;;;;;;;21.81;40.16;95931.25;6112155;28;102702;-67
2022/10/16 07:08:44;;;;;;;4.03;3.73;;;;;;;21.86;40.72;95925.13;6101661;28;103250;-67
2022/10/16 07:11:47;;;;;;;4.37;4.07;;;;;;;21.89;40.54;95925.34;6113140;28;103201;-67
2022/10/16 07:14:51;;;;;;;4.33;4.03;;;;;;;21.95;40.50;95924.22;6112687;28;103271;-67
2022/10/16 07:17:55;;;;;;;4.00;3.60;;;;;;;21.99;40.42;95933.22;6113308;28;103170;-68
2022/10/16 07:21:06;;;;;;;4.37;4.07;;;;;;;22.03;40.49;95936.94;6102530;28;103401;-67
2022/10/16 07:24:13;;;;;;;4.63;4.23;;;;;;;22.08;40.14;95936.88;6113006;28;105864;-68
2022/10/16 07:27:16;;;;;;;4.90;4.50;;;;;;;22.13;40.29;95930.69;6112832;28;103020;-67
2022/10/16 07:30:19;;;;;;;4.20;3.90;;;;;;;22.17;40.35;95936.22;6107233;28;103203;-67
2022/10/16 07:33:22;;;;;;;3.93;3.73;;;;;;;22.18;40.63;95935.97;6108196;28;103226;-67
2022/10/16 07:36:27;;;;;;;4.70;4.40;;;;;;;22.23;40.07;95940.44;6111581;28;103100;-67
2022/10/16 07:39:30;;;;;;;4.23;3.93;;;;;;;22.28;40.41;95937.72;6112486;28;103278;-67
2022/10/16 07:42:33;;;;;;;4.20;3.90;;;;;;;22.30;40.55;95935.56;6103037;28;103768;-68
2022/10/16 07:45:36;;;;;;;4.47;4.10;;;;;;;22.37;40.47;95942.16;6111702;28;103398;-70
2022/10/16 07:48:39;;;;;;;4.50;4.20;;;;;;;22.43;40.27;95942.88;6112693;28;103123;-68
2022/10/16 07:51:44;;;;;;;4.47;4.10;;;;;;;22.47;40.16;95941.22;6112804;28;103072;-68
2022/10/16 07:54:47;;;;;;;4.27;3.97;;;;;;;22.51;40.64;95947.56;6101626;28;103409;-69
2022/10/16 07:57:50;;;;;;;4.17;3.87;;;;;;;22.50;40.29;95937.16;6113137;28;102998;-68
2022/10/16 08:00:53;;;;;;;3.87;3.67;;;;;;;22.55;40.35;95951.25;6111421;28;103412;-68
2022/10/16 08:03:56;;;;;;;4.33;4.03;;;;;;;22.53;40.40;95942.75;6111017;28;104138;-68
2022/10/16 08:07:01;;;;;;;4.20;3.90;;;;;;;22.56;40.29;95944.03;6103628;28;103072;-67
2022/10/16 08:10:05;;;;;;;4.50;4.20;;;;;;;22.53;40.77;95950.75;6112183;28;103115;-68
2022/10/16 08:13:08;;;;;;;4.67;4.37;;;;;;;22.54;40.82;95947.00;6112513;28;102899;-68
2022/10/16 08:16:11;;;;;;;4.93;4.50;;;;;;;22.55;40.19;95937.91;6102059;28;103200;-68
2022/10/16 08:19:15;;;;;;;4.70;4.37;;;;;;;22.54;40.82;95944.34;6112479;28;104918;-68
2022/10/16 08:22:19;;;;;;;4.90;4.50;;;;;;;22.60;40.19;95939.75;6111822;28;103228;-68
2022/10/16 08:25:23;;;;;;;4.80;4.50;;;;;;;22.59;40.50;95935.50;6111845;28;103098;-67
2022/10/16 08:28:26;;;;;;;4.47;4.17;;;;;;;22.58;40.38;95937.38;6102307;28;102852;-67
2022/10/16 08:31:29;;;;;;;4.87;4.43;;;;;;;22.61;40.80;95931.47;6111477;28;103060;-67
2022/10/16 08:34:32;;;;;;;5.23;4.83;;;;;;;22.57;40.70;95935.00;6112379;28;103198;-67
2022/10/16 08:37:37;;;;;;;5.00;4.60;;;;;;;22.55;40.84;95926.47;6110832;28;103357;-67
2022/10/16 08:40:40;;;;;;;4.43;4.13;;;;;;;22.55;40.64;95927.25;6100927;28;103553;-67
2022/10/16 08:43:59;;;;;;;4.97;4.60;;;;;;;22.55;40.60;95931.78;6112138;28;103249;-67
2022/10/16 08:47:13;;;;;;;4.63;4.27;;;;;;;22.53;40.97;95924.06;6111947;28;103366;-67
2022/10/16 08:50:23;;;;;;;4.97;4.57;;;;;;;22.52;41.03;95933.16;6101716;28;104237;-67
2022/10/16 08:53:32;;;;;;;5.17;4.77;;;;;;;22.50;40.49;95932.63;6111493;28;103006;-67
2022/10/16 08:56:35;;;;;;;4.90;4.50;;;;;;;22.48;40.68;95936.66;6111662;28;103112;-67
2022/10/16 08:59:38;;;;;;;4.80;4.40;;;;;;;22.45;41.21;95940.69;6110918;28;103403;-67
2022/10/16 09:02:52;;;;;;;4.90;4.60;;;;;;;22.42;40.97;95946.63;6101616;28;103022;-67
2022/10/16 09:06:19;;;;;;;4.70;4.40;;;;;;;22.38;40.78;95940.28;6113641;28;102981;-67
2022/10/16 09:09:44;;;;;;;4.67;4.27;;;;;;;22.38;40.91;95932.28;6115442;28;105682;-67
2022/10/16 09:12:57;;;;;;;4.90;4.50;;;;;;;22.38;41.08;95935.72;6107077;28;103654;-68
2022/10/16 09:16:13;;;;;;;5.70;5.27;;;;;;;22.36;41.35;95924.56;6115059;28;102892;-66
2022/10/16 09:19:30;;;;;;;4.90;4.60;;;;;;;22.39;40.71;95931.19;6115455;28;103220;-67
2022/10/16 09:22:33;;;;;;;5.13;4.73;;;;;;;22.37;41.00;95928.00;6114561;28;103105;-67
2022/10/16 09:25:41;;;;;;;5.20;4.80;;;;;;;22.37;40.75;95938.69;6105341;28;103615;-68
2022/10/16 09:28:44;;;;;;;5.03;4.63;;;;;;;22.35;40.66;95932.84;6114631;28;103273;-67
2022/10/16 09:31:47;;;;;;;4.80;4.50;;;;;;;22.35;40.98;95930.97;6115284;28;103627;-66
2022/10/16 09:34:53;;;;;;;5.00;4.70;;;;;;;22.35;40.75;95930.97;6111386;28;102859;-67
2022/10/16 09:37:56;;;;;;;5.17;4.80;;;;;;;22.35;40.87;95922.97;6108830;28;103776;-67
2022/10/16 09:41:02;;;;;;;5.37;4.97;;;;;;;22.38;41.10;95926.94;6114520;28;103502;-67
2022/10/16 09:44:19;;;;;;;5.47;5.07;;;;;;;22.39;40.73;95917.84;6114610;28;103321;-67
2022/10/16 09:47:24;;;;;;;5.47;5.07;;;;;;;22.40;41.08;95916.78;6103835;28;103323;-68
2022/10/16 09:50:29;;;;;;;5.53;5.13;;;;;;;22.40;40.64;95908.78;6115280;28;102799;-67
2022/10/16 09:53:41;;;;;;;5.57;5.17;;;;;;;22.40;40.75;95919.44;6114830;28;103016;-67
2022/10/16 09:56:51;;;;;;;4.87;4.57;;;;;;;22.45;40.55;95908.69;6114004;28;103255;-67
2022/10/16 09:59:56;;;;;;;5.53;5.13;;;;;;;22.43;40.79;95905.53;6103132;28;103156;-67
2022/10/16 10:02:59;;;;;;;5.37;4.97;;;;;;;22.43;40.77;95902.84;6114737;28;103309;-67
2022/10/16 10:06:17;;;;;;;5.37;4.97;;;;;;;22.41;40.61;95897.03;6114158;28;103148;-67
2022/10/16 10:09:23;;;;;;;5.20;4.77;;;;;;;22.43;40.99;95897.53;6109126;28;103208;-67
2022/10/16 10:12:31;;;;;;;5.03;4.70;;;;;;;22.41;40.58;95881.81;6109669;28;105841;-67
2022/10/16 10:15:42;;;;;;;5.30;4.90;;;;;;;22.44;40.91;95892.97;6114402;28;104498;-67
2022/10/16 10:18:45;;;;;;;4.90;4.50;;;;;;;22.41;40.57;95889.03;6114279;28;103513;-67
2022/10/16 10:21:50;;;;;;;4.87;4.50;;;;;;;22.41;40.85;95887.16;6104520;28;103473;-67
2022/10/16 10:24:57;;;;;;;5.33;5.03;;;;;;;22.41;40.88;95894.34;6114438;28;102839;-67
2022/10/16 10:28:18;;;;;;;5.50;5.10;;;;;;;22.39;41.08;95889.31;6113653;28;102709;-67
2022/10/16 10:31:27;;;;;;;5.20;4.90;;;;;;;22.44;40.68;95885.78;6113989;28;103378;-68
2022/10/16 10:34:50;;;;;;;5.60;5.10;;;;;;;22.48;40.75;95878.00;6105725;28;103191;-67
2022/10/16 10:38:09;;;;;;;5.33;4.93;;;;;;;22.46;40.69;95875.59;6113800;28;103334;-68
2022/10/16 10:41:34;;;;;;;4.73;4.40;;;;;;;22.47;41.12;95874.53;6114124;28;103434;-68
2022/10/16 10:45:04;;;;;;;5.40;5.00;;;;;;;22.49;41.20;95876.91;6102385;28;103535;-67
2022/10/16 10:48:26;;;;;;;5.20;4.80;;;;;;;22.47;41.04;95877.19;6113971;28;103243;-67
2022/10/16 10:51:37;;;;;;;5.17;4.77;;;;;;;22.46;41.86;95874.81;6113647;28;103054;-68
2022/10/16 10:54:48;;;;;;;4.97;4.57;;;;;;;22.40;41.40;95871.44;6108075;28;103372;-67
2022/10/16 10:58:04;;;;;;;5.07;4.67;;;;;;;22.33;41.22;95865.66;6108043;28;105602;-67
2022/10/16 11:01:13;;;;;;;4.97;4.57;;;;;;;22.28;41.70;95858.50;6113341;28;103233;-67
2022/10/16 11:04:38;;;;;;;4.83;4.53;;;;;;;22.23;41.20;95855.91;6113464;28;103242;-67
2022/10/16 11:07:46;;;;;;;5.10;4.70;;;;;;;22.23;41.57;95855.13;6103192;28;103669;-67
2022/10/16 11:10:54;;;;;;;4.80;4.50;;;;;;;22.21;41.50;95849.28;6113329;28;103251;-66
2022/10/16 11:14:02;;;;;;;4.60;4.30;;;;;;;22.19;41.40;95854.13;6112838;28;103226;-68
2022/10/16 11:17:14;;;;;;;5.07;4.67;;;;;;;22.17;41.40;95846.38;6107221;28;103227;-67
2022/10/16 11:20:21;;;;;;;4.97;4.67;;;;;;;22.15;41.42;95845.09;6107834;28;102881;-67
2022/10/16 11:23:29;;;;;;;4.67;4.37;;;;;;;22.11;41.91;95844.88;6112879;28;103264;-67
2022/10/16 11:26:36;;;;;;;4.97;4.57;;;;;;;22.13;41.79;95840.03;6112655;28;103184;-67
2022/10/16 11:29:49;;;;;;;4.60;4.30;;;;;;;22.15;42.06;95831.75;6101721;28;103288;-67
2022/10/16 11:33:11;;;;;;;5.07;4.67;;;;;;;22.19;42.20;95830.13;6112690;28;103044;-68
2022/10/16 11:36:21;;;;;;;5.13;4.73;;;;;;;22.18;41.87;95832.00;6113299;28;102772;-68
2022/10/16 11:39:26;;;;;;;4.77;4.37;;;;;;;22.15;42.26;95832.56;6113055;28;103106;-68
2022/10/16 11:42:38;;;;;;;5.17;4.77;;;;;;;22.17;42.10;95837.59;6101272;28;103099;-68
2022/10/16 11:45:44;;;;;;;4.60;4.30;;;;;;;22.12;42.64;95838.47;6112968;28;103265;-68
2022/10/16 11:48:55;;;;;;;4.63;4.33;;;;;;;22.10;42.93;95833.41;6111597;28;103116;-68
2022/10/16 11:52:04;;;;;;;4.73;4.33;;;;;;;22.09;43.12;95834.50;6103669;28;104278;-68
2022/10/16 11:55:17;;;;;;;4.37;4.07;;;;;;;22.07;42.92;95834.00;6112654;28;103326;-67
2022/10/16 11:58:29;;;;;;;4.67;4.30;;;;;;;22.01;42.56;95832.47;6112236;28;105994;-68
2022/10/16 12:01:39;;;;;;;4.40;4.10;;;;;;;21.97;42.37;95833.31;6112723;28;103568;-67
2022/10/16 12:04:48;;;;;;;6.23;5.73;;;;;;;21.91;42.70;95829.94;6101930;28;104073;-67
2022/10/16 12:08:02;;;;;;;4.47;4.17;;;;;;;21.88;42.11;95832.38;6112201;28;103138;-67
2022/10/16 12:11:10;;;;;;;4.10;3.77;;;;;;;21.86;42.45;95832.66;6112225;28;103073;-67
2022/10/16 12:14:36;;;;;;;4.50;4.20;;;;;;;21.83;42.43;95835.06;6106533;28;103880;-67
2022/10/16 12:17:59;;;;;;;5.20;4.80;;;;;;;21.83;42.24;95832.41;6112153;28;103316;-67
2022/10/16 12:21:06;;;;;;;4.33;4.03;;;;;;;21.80;42.61;95837.22;6111260;28;106004;-67
2022/10/16 12:24:24;;;;;;;4.40;4.10;;;;;;;21.80;42.28;95839.06;6112108;28;104310;-68
2022/10/16 12:27:31;;;;;;;4.73;4.33;;;;;;;21.77;42.34;95836.97;6101098;28;103155;-67
2022/10/16 12:30:36;;;;;;;4.67;4.37;;;;;;;21.75;42.52;95833.81;6111693;28;103150;-68
2022/10/16 12:33:42;;;;;;;4.67;4.37;;;;;;;21.75;42.19;95839.94;6111652;28;103290;-68
2022/10/16 12:36:47;;;;;;;4.37;4.07;;;;;;;21.73;42.51;95839.44;6107626;28;103456;-67
2022/10/16 12:39:51;;;;;;;4.70;3.70;;;;;;;21.71;42.20;95835.47;6107322;28;104294;-67
2022/10/16 12:42:54;;;;;;;4.73;4.43;;;;;;;21.71;42.70;95835.47;6115993;28;102807;-68
2022/10/16 12:46:05;;;;;;;4.20;3.90;;;;;;;21.69;42.53;95835.75;6116123;28;103194;-67
2022/10/16 12:49:24;;;;;;;4.10;3.80;;;;;;;21.68;42.73;95844.03;6104629;28;103206;-68
2022/10/16 12:52:35;;;;;;;4.90;4.57;;;;;;;21.68;42.62;95833.38;6115236;28;103126;-67
2022/10/16 12:55:52;;;;;;;4.50;4.20;;;;;;;21.67;42.63;95839.75;6115192;28;103052;-67
2022/10/16 12:59:09;;;;;;;3.70;3.50;;;;;;;21.67;42.46;95845.88;6115449;28;103106;-68
2022/10/16 13:02:50;;;;;;;4.67;3.70;;;;;;;21.64;42.12;95842.97;6108204;28;103709;-68
2022/10/16 13:06:08;;;;;;;4.60;4.30;;;;;;;21.63;42.12;95846.72;6115603;28;103035;-68
2022/10/16 13:09:31;;;;;;;4.20;3.90;;;;;;;21.62;42.43;95853.91;6115556;28;103994;-67
2022/10/16 13:12:58;;;;;;;4.27;3.97;;;;;;;21.60;42.70;95844.63;6104359;28;103132;-67
2022/10/16 13:16:17;;;;;;;3.60;3.40;;;;;;;21.62;42.65;95853.13;6115674;28;102998;-67
2022/10/16 13:19:30;;;;;;;3.83;3.53;;;;;;;21.59;42.25;95853.69;6114569;28;103134;-67
2022/10/16 13:22:43;;;;;;;5.03;4.73;;;;;;;21.61;42.20;95846.22;6105396;28;103758;-67
2022/10/16 13:26:09;;;;;;;4.47;4.17;;;;;;;21.58;42.51;95850.25;6114385;28;105111;-66
2022/10/16 13:29:14;;;;;;;4.20;3.90;;;;;;;21.57;42.07;95847.88;6115480;28;103255;-68
2022/10/16 13:32:17;;;;;;;4.23;3.93;;;;;;;21.58;42.47;95844.91;6115105;28;103095;-67
2022/10/16 13:35:23;;;;;;;3.80;3.60;;;;;;;21.55;42.41;95844.69;6103564;28;103234;-67
2022/10/16 13:38:29;;;;;;;4.70;4.40;;;;;;;21.52;42.74;95846.84;6115080;28;103290;-67
2022/10/16 13:41:33;;;;;;;4.63;4.30;;;;;;;21.54;42.46;95851.09;6114954;28;106229;-68
2022/10/16 13:44:41;;;;;;;4.17;3.87;;;;;;;21.54;42.49;95851.09;6110218;28;103199;-67
2022/10/16 13:47:44;;;;;;;4.33;4.03;;;;;;;21.54;42.33;95841.25;6109771;28;102865;-67
2022/10/16 13:50:47;;;;;;;4.67;4.27;;;;;;;21.52;42.55;95852.19;6114446;28;103049;-66
2022/10/16 13:53:50;;;;;;;4.23;3.93;;;;;;;21.51;42.42;95853.25;6114656;28;103278;-67
2022/10/16 13:56:55;;;;;;;4.57;4.27;;;;;;;21.51;42.68;95855.13;6102343;28;103081;-67
2022/10/16 14:00:23;;;;;;;4.27;3.93;;;;;;;21.49;42.86;95858.03;6114444;28;103250;-67
2022/10/16 14:03:27;;;;;;;4.40;4.10;;;;;;;21.50;42.32;95854.31;6114135;28;103235;-67
2022/10/16 14:06:31;;;;;;;4.10;3.80;;;;;;;21.52;42.44;95856.72;6114019;28;104502;-67
2022/10/16 14:09:36;;;;;;;3.73;3.50;;;;;;;21.49;42.32;95862.56;6102903;28;103550;-67
2022/10/16 14:12:40;;;;;;;4.20;3.90;;;;;;;21.48;42.14;95867.09;6114094;28;103005;-67
2022/10/16 14:15:49;;;;;;;3.90;3.60;;;;;;;21.50;42.23;95869.47;6113985;28;103045;-66
2022/10/16 14:18:58;;;;;;;4.10;3.80;;;;;;;21.47;42.67;95872.72;6109750;28;102881;-67
2022/10/16 14:22:03;;;;;;;4.10;3.80;;;;;;;21.47;42.50;95878.03;6108798;28;105016;-65
2022/10/16 14:25:26;;;;;;;3.83;3.53;;;;;;;21.47;42.78;95881.50;6113752;28;103603;-67
2022/10/16 14:28:30;;;;;;;4.07;3.77;;;;;;;21.44;42.80;95879.41;6113536;28;103139;-67